KANK

Harriet Alexander Field Airport

Salida, Colorado, USA
METAR KANK 201435Z AUTO 32007KT 10SM CLR 20/01 A3043 RMK AO1 T02010006
Observed Flight Rules
Jul-20 @ 14:35 UTC (11 minutes ago) Visual Flight Rules
Wind Visibility Clouds
320° at 7 knots 10 miles
  • Clear skies
Temperatures Readings
Current 20°C / 68°F
Dewpoint 1°C / 34°F
Humidity 28%
Altimeter 30.43" Hg
Pressure 1030 hPa
Elevation 2293
METAR KANK 201435Z AUTO 32007KT 10SM CLR 20/01 A3043 RMK AO1 T02010006
Observed Flight Rules
Jul-20 @ 14:35 UTC
(11 minutes ago)
VFR
Wind Visibility
320° at 7 knots 10 miles
Clouds
  • Clear skies
Temperature Dewpoint
20°C / 68°F 1°C / 34°F
Humidity Altimeter Pressure
28% 30.43" Hg 1030 hPa